sensor_id;sensor_type;location;lat;lon;timestamp;temperature;humidity
31819;DHT22;18384;48.860;9.188;2023-06-01T00:02:25;18.20;69.40
31819;DHT22;18384;48.860;9.188;2023-06-01T00:04:51;18.20;69.50
31819;DHT22;18384;48.860;9.188;2023-06-01T00:07:17;18.10;69.50
31819;DHT22;18384;48.860;9.188;2023-06-01T00:09:43;18.20;69.70
31819;DHT22;18384;48.860;9.188;2023-06-01T00:12:10;18.10;69.90
31819;DHT22;18384;48.860;9.188;2023-06-01T00:14:36;18.10;70.60
31819;DHT22;18384;48.860;9.188;2023-06-01T00:17:02;18.10;72.40
31819;DHT22;18384;48.860;9.188;2023-06-01T00:19:28;18.10;71.00
31819;DHT22;18384;48.860;9.188;2023-06-01T00:21:55;18.00;70.80
31819;DHT22;18384;48.860;9.188;2023-06-01T00:24:22;18.00;71.90
31819;DHT22;18384;48.860;9.188;2023-06-01T00:26:49;18.00;72.80
31819;DHT22;18384;48.860;9.188;2023-06-01T00:29:15;18.00;71.90
31819;DHT22;18384;48.860;9.188;2023-06-01T00:31:41;17.90;72.80
31819;DHT22;18384;48.860;9.188;2023-06-01T00:34:08;17.90;72.40
31819;DHT22;18384;48.860;9.188;2023-06-01T00:36:34;17.80;72.90
31819;DHT22;18384;48.860;9.188;2023-06-01T00:39:01;17.80;73.90
31819;DHT22;18384;48.860;9.188;2023-06-01T00:41:31;17.80;73.20
31819;DHT22;18384;48.860;9.188;2023-06-01T00:43:57;17.80;73.40
31819;DHT22;18384;48.860;9.188;2023-06-01T00:46:23;17.70;73.50
31819;DHT22;18384;48.860;9.188;2023-06-01T00:48:50;17.70;74.20
31819;DHT22;18384;48.860;9.188;2023-06-01T00:51:17;17.70;73.30
31819;DHT22;18384;48.860;9.188;2023-06-01T00:53:43;17.70;74.00
31819;DHT22;18384;48.860;9.188;2023-06-01T00:56:10;17.60;73.10
31819;DHT22;18384;48.860;9.188;2023-06-01T00:58:40;17.60;73.60
31819;DHT22;18384;48.860;9.188;2023-06-01T01:01:07;17.60;73.60
31819;DHT22;18384;48.860;9.188;2023-06-01T01:03:48;17.60;73.30
31819;DHT22;18384;48.860;9.188;2023-06-01T01:14:16;17.50;74.00
31819;DHT22;18384;48.860;9.188;2023-06-01T01:17:29;17.40;74.60
31819;DHT22;18384;48.860;9.188;2023-06-01T01:20:24;17.40;75.50
31819;DHT22;18384;48.860;9.188;2023-06-01T01:24:52;17.40;75.10
31819;DHT22;18384;48.860;9.188;2023-06-01T01:31:45;17.30;74.70
31819;DHT22;18384;48.860;9.188;2023-06-01T01:34:14;17.30;74.20
31819;DHT22;18384;48.860;9.188;2023-06-01T01:36:40;17.20;74.50
31819;DHT22;18384;48.860;9.188;2023-06-01T01:39:07;17.20;74.40
31819;DHT22;18384;48.860;9.188;2023-06-01T01:41:33;17.30;75.30
31819;DHT22;18384;48.860;9.188;2023-06-01T01:43:59;17.20;75.20
31819;DHT22;18384;48.860;9.188;2023-06-01T01:46:26;18.20;77.40
31819;DHT22;18384;48.860;9.188;2023-06-01T01:49:12;17.20;76.20
31819;DHT22;18384;48.860;9.188;2023-06-01T01:51:50;17.20;75.60
31819;DHT22;18384;48.860;9.188;2023-06-01T01:54:20;17.20;77.10
31819;DHT22;18384;48.860;9.188;2023-06-01T01:56:47;17.10;76.00
31819;DHT22;18384;48.860;9.188;2023-06-01T01:59:15;17.10;74.70
31819;DHT22;18384;48.860;9.188;2023-06-01T02:01:41;17.10;74.80
31819;DHT22;18384;48.860;9.188;2023-06-01T02:04:10;17.00;74.60
31819;DHT22;18384;48.860;9.188;2023-06-01T02:06:36;17.00;74.90
31819;DHT22;18384;48.860;9.188;2023-06-01T02:09:06;17.00;75.10
31819;DHT22;18384;48.860;9.188;2023-06-01T02:11:36;17.00;75.60
31819;DHT22;18384;48.860;9.188;2023-06-01T02:14:02;16.90;75.20
31819;DHT22;18384;48.860;9.188;2023-06-01T02:16:28;16.80;75.50
31819;DHT22;18384;48.860;9.188;2023-06-01T02:18:55;16.80;75.60
31819;DHT22;18384;48.860;9.188;2023-06-01T02:21:24;16.70;75.70
31819;DHT22;18384;48.860;9.188;2023-06-01T02:23:50;16.80;76.00
31819;DHT22;18384;48.860;9.188;2023-06-01T02:26:16;16.80;76.90
31819;DHT22;18384;48.860;9.188;2023-06-01T02:28:42;16.70;76.20
31819;DHT22;18384;48.860;9.188;2023-06-01T02:31:09;16.70;76.10
31819;DHT22;18384;48.860;9.188;2023-06-01T02:33:35;16.80;76.10
31819;DHT22;18384;48.860;9.188;2023-06-01T02:36:03;16.70;76.70
31819;DHT22;18384;48.860;9.188;2023-06-01T02:38:30;16.70;77.30
31819;DHT22;18384;48.860;9.188;2023-06-01T02:40:56;16.70;76.60
31819;DHT22;18384;48.860;9.188;2023-06-01T02:43:22;16.70;76.80
31819;DHT22;18384;48.860;9.188;2023-06-01T02:45:48;16.70;76.90
31819;DHT22;18384;48.860;9.188;2023-06-01T02:48:15;16.70;76.80
31819;DHT22;18384;48.860;9.188;2023-06-01T02:50:41;16.70;76.80
31819;DHT22;18384;48.860;9.188;2023-06-01T02:53:07;16.60;77.50
31819;DHT22;18384;48.860;9.188;2023-06-01T02:55:33;16.70;77.70
31819;DHT22;18384;48.860;9.188;2023-06-01T02:57:59;16.60;78.50
31819;DHT22;18384;48.860;9.188;2023-06-01T03:00:25;16.60;78.40
31819;DHT22;18384;48.860;9.188;2023-06-01T03:02:52;16.60;79.20
31819;DHT22;18384;48.860;9.188;2023-06-01T03:05:19;16.50;79.00
31819;DHT22;18384;48.860;9.188;2023-06-01T03:07:47;16.50;79.30
31819;DHT22;18384;48.860;9.188;2023-06-01T03:10:13;16.50;78.90
31819;DHT22;18384;48.860;9.188;2023-06-01T03:12:40;16.50;77.70
31819;DHT22;18384;48.860;9.188;2023-06-01T03:15:06;16.40;77.90
31819;DHT22;18384;48.860;9.188;2023-06-01T03:17:32;16.50;78.10
31819;DHT22;18384;48.860;9.188;2023-06-01T03:19:59;16.40;78.70
31819;DHT22;18384;48.860;9.188;2023-06-01T03:22:25;16.40;78.10
31819;DHT22;18384;48.860;9.188;2023-06-01T03:24:52;16.40;78.20
31819;DHT22;18384;48.860;9.188;2023-06-01T03:27:20;16.30;78.40
31819;DHT22;18384;48.860;9.188;2023-06-01T03:29:47;16.40;78.90
31819;DHT22;18384;48.860;9.188;2023-06-01T03:32:13;16.40;79.90
31819;DHT22;18384;48.860;9.188;2023-06-01T03:34:39;16.30;79.60
31819;DHT22;18384;48.860;9.188;2023-06-01T03:37:07;16.30;80.20
31819;DHT22;18384;48.860;9.188;2023-06-01T03:39:33;16.30;80.70
31819;DHT22;18384;48.860;9.188;2023-06-01T03:42:01;16.30;80.00
31819;DHT22;18384;48.860;9.188;2023-06-01T03:44:27;16.30;80.50
31819;DHT22;18384;48.860;9.188;2023-06-01T03:46:53;16.30;81.30
31819;DHT22;18384;48.860;9.188;2023-06-01T03:49:20;16.40;82.00
31819;DHT22;18384;48.860;9.188;2023-06-01T03:51:46;16.40;81.70
31819;DHT22;18384;48.860;9.188;2023-06-01T03:54:12;16.30;80.70
31819;DHT22;18384;48.860;9.188;2023-06-01T03:56:38;16.30;81.50
31819;DHT22;18384;48.860;9.188;2023-06-01T03:59:04;16.30;80.90
31819;DHT22;18384;48.860;9.188;2023-06-01T04:01:36;17.70;82.10
31819;DHT22;18384;48.860;9.188;2023-06-01T04:04:05;16.30;81.70
31819;DHT22;18384;48.860;9.188;2023-06-01T04:06:34;16.30;82.80
31819;DHT22;18384;48.860;9.188;2023-06-01T04:09:02;16.40;81.90
31819;DHT22;18384;48.860;9.188;2023-06-01T04:11:32;16.40;81.70
31819;DHT22;18384;48.860;9.188;2023-06-01T04:14:01;16.40;82.10
31819;DHT22;18384;48.860;9.188;2023-06-01T04:16:28;16.30;81.60
31819;DHT22;18384;48.860;9.188;2023-06-01T04:18:54;16.30;81.80
31819;DHT22;18384;48.860;9.188;2023-06-01T04:21:21;16.30;81.90
31819;DHT22;18384;48.860;9.188;2023-06-01T04:23:49;16.30;82.00
31819;DHT22;18384;48.860;9.188;2023-06-01T04:26:16;16.40;81.40
31819;DHT22;18384;48.860;9.188;2023-06-01T04:28:44;16.50;81.20
31819;DHT22;18384;48.860;9.188;2023-06-01T04:31:11;16.60;80.90
31819;DHT22;18384;48.860;9.188;2023-06-01T04:33:43;16.70;81.70
31819;DHT22;18384;48.860;9.188;2023-06-01T04:36:12;16.70;81.40
31819;DHT22;18384;48.860;9.188;2023-06-01T04:38:41;16.90;81.20
31819;DHT22;18384;48.860;9.188;2023-06-01T04:41:08;17.10;80.50
31819;DHT22;18384;48.860;9.188;2023-06-01T04:43:36;17.10;80.20
31819;DHT22;18384;48.860;9.188;2023-06-01T04:46:05;17.30;78.50
31819;DHT22;18384;48.860;9.188;2023-06-01T04:48:31;17.40;77.60
31819;DHT22;18384;48.860;9.188;2023-06-01T04:50:58;17.60;77.90
31819;DHT22;18384;48.860;9.188;2023-06-01T04:53:25;17.90;76.70
31819;DHT22;18384;48.860;9.188;2023-06-01T04:55:52;18.00;76.30
31819;DHT22;18384;48.860;9.188;2023-06-01T04:58:19;18.10;75.90
31819;DHT22;18384;48.860;9.188;2023-06-01T05:00:46;18.10;76.10
31819;DHT22;18384;48.860;9.188;2023-06-01T05:03:12;18.10;76.60
31819;DHT22;18384;48.860;9.188;2023-06-01T05:05:38;18.10;77.70
31819;DHT22;18384;48.860;9.188;2023-06-01T05:08:04;18.00;77.60
31819;DHT22;18384;48.860;9.188;2023-06-01T05:10:30;18.00;78.50
31819;DHT22;18384;48.860;9.188;2023-06-01T05:12:56;17.90;78.00
31819;DHT22;18384;48.860;9.188;2023-06-01T05:15:22;18.00;78.70
31819;DHT22;18384;48.860;9.188;2023-06-01T05:17:49;18.20;78.10
31819;DHT22;18384;48.860;9.188;2023-06-01T05:20:16;18.10;77.60
31819;DHT22;18384;48.860;9.188;2023-06-01T05:22:43;18.10;76.60
31819;DHT22;18384;48.860;9.188;2023-06-01T05:25:09;18.20;77.40
31819;DHT22;18384;48.860;9.188;2023-06-01T05:27:35;18.10;77.40
31819;DHT22;18384;48.860;9.188;2023-06-01T05:30:02;18.30;78.50
31819;DHT22;18384;48.860;9.188;2023-06-01T05:32:29;18.50;76.40
31819;DHT22;18384;48.860;9.188;2023-06-01T05:34:55;18.60;76.20
31819;DHT22;18384;48.860;9.188;2023-06-01T05:37:21;18.70;75.70
31819;DHT22;18384;48.860;9.188;2023-06-01T05:39:47;18.70;76.70
31819;DHT22;18384;48.860;9.188;2023-06-01T05:42:14;18.80;76.50
31819;DHT22;18384;48.860;9.188;2023-06-01T05:44:40;18.80;76.60
31819;DHT22;18384;48.860;9.188;2023-06-01T05:47:06;18.80;76.70
31819;DHT22;18384;48.860;9.188;2023-06-01T05:49:35;18.90;76.30
31819;DHT22;18384;48.860;9.188;2023-06-01T05:52:01;19.10;75.90
31819;DHT22;18384;48.860;9.188;2023-06-01T05:54:29;19.60;75.60
31819;DHT22;18384;48.860;9.188;2023-06-01T05:56:56;20.10;75.00
31819;DHT22;18384;48.860;9.188;2023-06-01T05:59:22;19.90;74.80
31819;DHT22;18384;48.860;9.188;2023-06-01T06:01:48;20.10;73.90
31819;DHT22;18384;48.860;9.188;2023-06-01T06:04:14;20.40;72.70
31819;DHT22;18384;48.860;9.188;2023-06-01T06:06:40;20.50;72.30
31819;DHT22;18384;48.860;9.188;2023-06-01T06:09:06;20.40;72.70
31819;DHT22;18384;48.860;9.188;2023-06-01T06:11:32;20.60;73.30
31819;DHT22;18384;48.860;9.188;2023-06-01T06:13:58;20.80;72.50
31819;DHT22;18384;48.860;9.188;2023-06-01T06:16:25;20.80;72.20
31819;DHT22;18384;48.860;9.188;2023-06-01T06:18:51;20.70;72.70
31819;DHT22;18384;48.860;9.188;2023-06-01T06:21:17;20.60;71.50
31819;DHT22;18384;48.860;9.188;2023-06-01T06:23:43;20.50;71.30
31819;DHT22;18384;48.860;9.188;2023-06-01T06:26:10;20.40;72.10
31819;DHT22;18384;48.860;9.188;2023-06-01T06:28:36;20.30;71.10
31819;DHT22;18384;48.860;9.188;2023-06-01T06:31:02;20.30;71.60
31819;DHT22;18384;48.860;9.188;2023-06-01T06:33:28;20.20;72.40
31819;DHT22;18384;48.860;9.188;2023-06-01T06:35:55;20.30;72.00
31819;DHT22;18384;48.860;9.188;2023-06-01T06:38:22;20.30;71.40
31819;DHT22;18384;48.860;9.188;2023-06-01T06:40:49;20.30;73.10
31819;DHT22;18384;48.860;9.188;2023-06-01T06:43:16;20.40;71.40
31819;DHT22;18384;48.860;9.188;2023-06-01T06:45:42;20.40;70.50
31819;DHT22;18384;48.860;9.188;2023-06-01T06:48:09;20.40;70.70
31819;DHT22;18384;48.860;9.188;2023-06-01T06:50:35;20.30;71.40
31819;DHT22;18384;48.860;9.188;2023-06-01T06:53:02;20.40;69.70
31819;DHT22;18384;48.860;9.188;2023-06-01T06:55:30;20.40;70.40
31819;DHT22;18384;48.860;9.188;2023-06-01T06:57:56;20.50;69.30
31819;DHT22;18384;48.860;9.188;2023-06-01T07:00:22;20.50;68.90
31819;DHT22;18384;48.860;9.188;2023-06-01T07:02:48;20.50;68.30
31819;DHT22;18384;48.860;9.188;2023-06-01T07:05:15;20.50;68.50
31819;DHT22;18384;48.860;9.188;2023-06-01T07:07:41;20.50;68.70
31819;DHT22;18384;48.860;9.188;2023-06-01T07:10:07;20.50;68.40
31819;DHT22;18384;48.860;9.188;2023-06-01T07:12:33;20.40;69.40
31819;DHT22;18384;48.860;9.188;2023-06-01T07:15:00;20.50;68.90
31819;DHT22;18384;48.860;9.188;2023-06-01T07:17:28;20.40;69.40
31819;DHT22;18384;48.860;9.188;2023-06-01T07:19:54;20.60;69.30
31819;DHT22;18384;48.860;9.188;2023-06-01T07:22:20;20.60;69.70
31819;DHT22;18384;48.860;9.188;2023-06-01T07:24:46;20.70;70.30
31819;DHT22;18384;48.860;9.188;2023-06-01T07:27:16;20.70;70.30
31819;DHT22;18384;48.860;9.188;2023-06-01T07:29:43;20.80;69.10
31819;DHT22;18384;48.860;9.188;2023-06-01T07:32:10;20.80;69.80
31819;DHT22;18384;48.860;9.188;2023-06-01T07:34:36;20.90;70.80
31819;DHT22;18384;48.860;9.188;2023-06-01T07:37:02;20.90;68.60
31819;DHT22;18384;48.860;9.188;2023-06-01T07:39:29;20.90;68.80
31819;DHT22;18384;48.860;9.188;2023-06-01T07:41:55;20.90;68.40
31819;DHT22;18384;48.860;9.188;2023-06-01T07:44:22;20.90;68.10
31819;DHT22;18384;48.860;9.188;2023-06-01T07:46:48;20.90;68.60
31819;DHT22;18384;48.860;9.188;2023-06-01T07:49:14;20.90;70.20
31819;DHT22;18384;48.860;9.188;2023-06-01T07:51:41;20.90;69.20
31819;DHT22;18384;48.860;9.188;2023-06-01T07:54:07;21.00;68.90
31819;DHT22;18384;48.860;9.188;2023-06-01T07:56:33;21.00;68.60
31819;DHT22;18384;48.860;9.188;2023-06-01T07:59:00;21.00;70.00
31819;DHT22;18384;48.860;9.188;2023-06-01T08:01:26;21.10;68.80
31819;DHT22;18384;48.860;9.188;2023-06-01T08:03:52;21.20;69.10
31819;DHT22;18384;48.860;9.188;2023-06-01T08:06:18;21.20;68.80
31819;DHT22;18384;48.860;9.188;2023-06-01T08:08:49;21.30;69.90
31819;DHT22;18384;48.860;9.188;2023-06-01T08:11:16;21.50;68.80
31819;DHT22;18384;48.860;9.188;2023-06-01T08:13:43;21.60;68.80
31819;DHT22;18384;48.860;9.188;2023-06-01T08:16:12;21.60;68.10
31819;DHT22;18384;48.860;9.188;2023-06-01T08:18:41;21.70;67.70
31819;DHT22;18384;48.860;9.188;2023-06-01T08:21:06;21.80;67.30
31819;DHT22;18384;48.860;9.188;2023-06-01T08:23:35;21.80;67.40
31819;DHT22;18384;48.860;9.188;2023-06-01T08:26:01;21.80;67.30
31819;DHT22;18384;48.860;9.188;2023-06-01T08:28:27;21.80;66.50
31819;DHT22;18384;48.860;9.188;2023-06-01T08:30:53;21.90;69.10
31819;DHT22;18384;48.860;9.188;2023-06-01T08:33:19;22.00;67.10
31819;DHT22;18384;48.860;9.188;2023-06-01T08:35:45;22.10;66.40
31819;DHT22;18384;48.860;9.188;2023-06-01T08:38:12;22.00;67.30
31819;DHT22;18384;48.860;9.188;2023-06-01T08:40:38;22.00;66.60
31819;DHT22;18384;48.860;9.188;2023-06-01T08:43:19;22.00;67.40
31819;DHT22;18384;48.860;9.188;2023-06-01T08:45:46;22.00;69.10
31819;DHT22;18384;48.860;9.188;2023-06-01T08:48:16;22.00;67.50
31819;DHT22;18384;48.860;9.188;2023-06-01T08:50:50;22.10;68.90
31819;DHT22;18384;48.860;9.188;2023-06-01T08:53:20;22.20;67.90
31819;DHT22;18384;48.860;9.188;2023-06-01T08:55:56;22.30;67.40
31819;DHT22;18384;48.860;9.188;2023-06-01T08:58:24;22.30;67.20
31819;DHT22;18384;48.860;9.188;2023-06-01T09:00:51;22.40;66.50
31819;DHT22;18384;48.860;9.188;2023-06-01T09:03:19;22.50;66.60
31819;DHT22;18384;48.860;9.188;2023-06-01T09:05:46;22.60;65.20
31819;DHT22;18384;48.860;9.188;2023-06-01T09:08:12;22.60;65.70
31819;DHT22;18384;48.860;9.188;2023-06-01T09:10:38;22.70;66.20
31819;DHT22;18384;48.860;9.188;2023-06-01T09:13:05;22.80;65.60
31819;DHT22;18384;48.860;9.188;2023-06-01T09:15:31;22.80;67.60
31819;DHT22;18384;48.860;9.188;2023-06-01T09:18:06;22.80;67.60
31819;DHT22;18384;48.860;9.188;2023-06-01T09:20:33;23.00;66.90
31819;DHT22;18384;48.860;9.188;2023-06-01T09:23:00;23.00;67.70
31819;DHT22;18384;48.860;9.188;2023-06-01T09:25:28;23.10;66.50
31819;DHT22;18384;48.860;9.188;2023-06-01T09:27:59;23.10;65.90
31819;DHT22;18384;48.860;9.188;2023-06-01T09:30:43;23.20;66.60
31819;DHT22;18384;48.860;9.188;2023-06-01T09:33:16;23.10;65.20
31819;DHT22;18384;48.860;9.188;2023-06-01T09:35:48;23.10;65.50
31819;DHT22;18384;48.860;9.188;2023-06-01T09:38:24;23.10;67.20
31819;DHT22;18384;48.860;9.188;2023-06-01T09:41:02;23.10;66.00
31819;DHT22;18384;48.860;9.188;2023-06-01T09:43:29;23.30;65.70
31819;DHT22;18384;48.860;9.188;2023-06-01T09:46:09;23.30;65.50
31819;DHT22;18384;48.860;9.188;2023-06-01T09:48:39;23.30;65.70
31819;DHT22;18384;48.860;9.188;2023-06-01T09:51:24;23.30;64.80
31819;DHT22;18384;48.860;9.188;2023-06-01T09:53:54;23.30;66.50
31819;DHT22;18384;48.860;9.188;2023-06-01T09:56:20;23.50;68.10
31819;DHT22;18384;48.860;9.188;2023-06-01T09:58:47;23.50;66.60
31819;DHT22;18384;48.860;9.188;2023-06-01T10:01:15;23.60;65.40
31819;DHT22;18384;48.860;9.188;2023-06-01T10:03:42;23.70;65.80
31819;DHT22;18384;48.860;9.188;2023-06-01T10:06:11;23.80;65.30
31819;DHT22;18384;48.860;9.188;2023-06-01T10:08:38;23.90;64.60
31819;DHT22;18384;48.860;9.188;2023-06-01T10:11:07;23.80;64.50
31819;DHT22;18384;48.860;9.188;2023-06-01T10:13:35;23.80;64.30
31819;DHT22;18384;48.860;9.188;2023-06-01T10:16:01;23.80;64.40
31819;DHT22;18384;48.860;9.188;2023-06-01T10:18:29;23.80;65.30
31819;DHT22;18384;48.860;9.188;2023-06-01T10:20:55;23.90;64.50
31819;DHT22;18384;48.860;9.188;2023-06-01T10:23:22;23.80;66.60
31819;DHT22;18384;48.860;9.188;2023-06-01T10:25:49;23.80;66.50
31819;DHT22;18384;48.860;9.188;2023-06-01T10:28:15;23.90;64.40
31819;DHT22;18384;48.860;9.188;2023-06-01T10:30:42;24.10;64.70
31819;DHT22;18384;48.860;9.188;2023-06-01T10:33:07;24.00;62.90
31819;DHT22;18384;48.860;9.188;2023-06-01T10:51:19;24.20;60.70
31819;DHT22;18384;48.860;9.188;2023-06-01T10:53:46;24.00;60.40
31819;DHT22;18384;48.860;9.188;2023-06-01T10:59:11;24.00;61.40
31819;DHT22;18384;48.860;9.188;2023-06-01T11:01:41;24.20;62.90
31819;DHT22;18384;48.860;9.188;2023-06-01T11:04:12;24.20;64.20
31819;DHT22;18384;48.860;9.188;2023-06-01T11:06:40;24.30;64.40
31819;DHT22;18384;48.860;9.188;2023-06-01T11:09:12;24.50;63.00
31819;DHT22;18384;48.860;9.188;2023-06-01T11:13:25;24.50;63.30
31819;DHT22;18384;48.860;9.188;2023-06-01T11:16:26;24.50;63.60
31819;DHT22;18384;48.860;9.188;2023-06-01T11:18:55;24.60;63.10
31819;DHT22;18384;48.860;9.188;2023-06-01T11:21:29;24.50;63.20
31819;DHT22;18384;48.860;9.188;2023-06-01T11:24:00;24.50;62.80
31819;DHT22;18384;48.860;9.188;2023-06-01T11:26:52;24.50;62.20
31819;DHT22;18384;48.860;9.188;2023-06-01T11:29:23;24.60;63.40
31819;DHT22;18384;48.860;9.188;2023-06-01T11:31:55;24.60;62.60
31819;DHT22;18384;48.860;9.188;2023-06-01T11:34:33;24.70;62.60
31819;DHT22;18384;48.860;9.188;2023-06-01T11:37:03;24.70;62.20
31819;DHT22;18384;48.860;9.188;2023-06-01T11:39:31;24.80;61.80
31819;DHT22;18384;48.860;9.188;2023-06-01T11:42:34;24.90;60.40
31819;DHT22;18384;48.860;9.188;2023-06-01T11:45:00;25.00;61.00
31819;DHT22;18384;48.860;9.188;2023-06-01T11:47:29;25.10;61.60
31819;DHT22;18384;48.860;9.188;2023-06-01T11:49:56;25.20;61.10
31819;DHT22;18384;48.860;9.188;2023-06-01T11:52:22;25.30;62.00
31819;DHT22;18384;48.860;9.188;2023-06-01T11:54:48;25.20;62.50
31819;DHT22;18384;48.860;9.188;2023-06-01T11:57:17;25.30;62.60
31819;DHT22;18384;48.860;9.188;2023-06-01T11:59:46;25.30;62.50
31819;DHT22;18384;48.860;9.188;2023-06-01T12:02:18;25.30;63.20
31819;DHT22;18384;48.860;9.188;2023-06-01T12:05:00;25.20;63.60
31819;DHT22;18384;48.860;9.188;2023-06-01T12:07:47;25.10;64.00
31819;DHT22;18384;48.860;9.188;2023-06-01T12:10:17;25.00;63.70
31819;DHT22;18384;48.860;9.188;2023-06-01T12:12:45;24.80;64.40
31819;DHT22;18384;48.860;9.188;2023-06-01T12:15:14;24.80;63.90
31819;DHT22;18384;48.860;9.188;2023-06-01T12:17:56;24.80;63.80
31819;DHT22;18384;48.860;9.188;2023-06-01T12:20:33;24.90;64.30
31819;DHT22;18384;48.860;9.188;2023-06-01T12:23:02;25.00;65.30
31819;DHT22;18384;48.860;9.188;2023-06-01T12:25:55;25.10;63.00
31819;DHT22;18384;48.860;9.188;2023-06-01T12:28:23;25.10;63.00
31819;DHT22;18384;48.860;9.188;2023-06-01T12:31:12;25.20;63.30
31819;DHT22;18384;48.860;9.188;2023-06-01T12:33:42;25.20;62.20
31819;DHT22;18384;48.860;9.188;2023-06-01T12:36:29;25.20;62.10
31819;DHT22;18384;48.860;9.188;2023-06-01T12:39:01;25.10;62.40
31819;DHT22;18384;48.860;9.188;2023-06-01T12:41:29;25.10;61.90
31819;DHT22;18384;48.860;9.188;2023-06-01T12:43:56;25.10;62.20
31819;DHT22;18384;48.860;9.188;2023-06-01T12:46:30;25.10;63.10
31819;DHT22;18384;48.860;9.188;2023-06-01T12:49:14;25.20;62.20
31819;DHT22;18384;48.860;9.188;2023-06-01T12:51:45;25.30;62.00
31819;DHT22;18384;48.860;9.188;2023-06-01T12:54:11;25.30;61.80
31819;DHT22;18384;48.860;9.188;2023-06-01T12:56:38;25.40;61.70
31819;DHT22;18384;48.860;9.188;2023-06-01T12:59:04;25.50;61.70
31819;DHT22;18384;48.860;9.188;2023-06-01T13:01:31;25.40;60.50
31819;DHT22;18384;48.860;9.188;2023-06-01T13:03:57;25.30;61.10
31819;DHT22;18384;48.860;9.188;2023-06-01T13:06:23;25.30;61.50
31819;DHT22;18384;48.860;9.188;2023-06-01T13:08:50;25.30;62.20
31819;DHT22;18384;48.860;9.188;2023-06-01T13:11:15;25.30;59.60
31819;DHT22;18384;48.860;9.188;2023-06-01T13:13:42;25.30;60.30
31819;DHT22;18384;48.860;9.188;2023-06-01T13:16:08;25.10;59.00
31819;DHT22;18384;48.860;9.188;2023-06-01T13:18:34;25.30;60.30
31819;DHT22;18384;48.860;9.188;2023-06-01T13:21:00;25.30;59.60
31819;DHT22;18384;48.860;9.188;2023-06-01T13:23:28;25.30;59.40
31819;DHT22;18384;48.860;9.188;2023-06-01T13:25:54;25.30;58.30
31819;DHT22;18384;48.860;9.188;2023-06-01T13:28:20;25.20;59.10
31819;DHT22;18384;48.860;9.188;2023-06-01T13:30:46;25.30;58.70
31819;DHT22;18384;48.860;9.188;2023-06-01T13:33:12;25.20;58.70
31819;DHT22;18384;48.860;9.188;2023-06-01T13:35:38;25.30;58.40
31819;DHT22;18384;48.860;9.188;2023-06-01T13:38:04;25.40;58.10
31819;DHT22;18384;48.860;9.188;2023-06-01T13:40:30;25.40;59.00
31819;DHT22;18384;48.860;9.188;2023-06-01T13:42:58;25.30;58.00
31819;DHT22;18384;48.860;9.188;2023-06-01T13:45:24;25.30;58.70
31819;DHT22;18384;48.860;9.188;2023-06-01T13:47:50;25.20;58.30
31819;DHT22;18384;48.860;9.188;2023-06-01T13:50:17;25.30;59.40
31819;DHT22;18384;48.860;9.188;2023-06-01T13:52:43;25.20;59.60
31819;DHT22;18384;48.860;9.188;2023-06-01T13:55:10;25.20;59.60
31819;DHT22;18384;48.860;9.188;2023-06-01T13:57:37;25.20;58.90
31819;DHT22;18384;48.860;9.188;2023-06-01T14:00:05;25.20;58.30
31819;DHT22;18384;48.860;9.188;2023-06-01T14:02:32;25.30;58.80
31819;DHT22;18384;48.860;9.188;2023-06-01T14:04:58;25.30;59.00
31819;DHT22;18384;48.860;9.188;2023-06-01T14:07:24;25.40;58.80
31819;DHT22;18384;48.860;9.188;2023-06-01T14:09:50;25.50;58.80
31819;DHT22;18384;48.860;9.188;2023-06-01T14:12:16;25.50;57.70
31819;DHT22;18384;48.860;9.188;2023-06-01T14:14:42;25.60;59.00
31819;DHT22;18384;48.860;9.188;2023-06-01T14:17:08;25.50;58.20
31819;DHT22;18384;48.860;9.188;2023-06-01T14:19:34;25.60;57.70
31819;DHT22;18384;48.860;9.188;2023-06-01T14:22:00;25.60;58.70
31819;DHT22;18384;48.860;9.188;2023-06-01T14:24:26;25.60;57.50
31819;DHT22;18384;48.860;9.188;2023-06-01T14:26:52;25.50;58.40
31819;DHT22;18384;48.860;9.188;2023-06-01T14:29:19;25.50;57.90
31819;DHT22;18384;48.860;9.188;2023-06-01T14:31:45;25.50;58.30
31819;DHT22;18384;48.860;9.188;2023-06-01T14:34:11;25.60;57.80
31819;DHT22;18384;48.860;9.188;2023-06-01T14:36:37;25.60;58.80
31819;DHT22;18384;48.860;9.188;2023-06-01T14:39:04;25.60;57.90
31819;DHT22;18384;48.860;9.188;2023-06-01T14:41:30;25.80;57.80
31819;DHT22;18384;48.860;9.188;2023-06-01T14:43:56;25.80;57.70
31819;DHT22;18384;48.860;9.188;2023-06-01T14:46:22;25.80;57.00
31819;DHT22;18384;48.860;9.188;2023-06-01T14:48:48;25.70;57.60
31819;DHT22;18384;48.860;9.188;2023-06-01T14:51:14;25.70;57.80
31819;DHT22;18384;48.860;9.188;2023-06-01T14:53:41;25.70;56.90
31819;DHT22;18384;48.860;9.188;2023-06-01T14:56:07;25.80;56.80
31819;DHT22;18384;48.860;9.188;2023-06-01T14:58:34;25.70;56.50
31819;DHT22;18384;48.860;9.188;2023-06-01T15:01:00;25.80;57.70
31819;DHT22;18384;48.860;9.188;2023-06-01T15:03:26;25.80;57.30
31819;DHT22;18384;48.860;9.188;2023-06-01T15:05:52;25.80;57.30
31819;DHT22;18384;48.860;9.188;2023-06-01T15:08:18;25.80;57.40
31819;DHT22;18384;48.860;9.188;2023-06-01T15:10:46;25.80;57.50
31819;DHT22;18384;48.860;9.188;2023-06-01T15:13:12;25.90;56.60
31819;DHT22;18384;48.860;9.188;2023-06-01T15:15:41;25.80;57.00
31819;DHT22;18384;48.860;9.188;2023-06-01T15:18:07;25.90;56.50
31819;DHT22;18384;48.860;9.188;2023-06-01T15:20:34;25.90;56.90
31819;DHT22;18384;48.860;9.188;2023-06-01T15:23:00;25.90;57.60
31819;DHT22;18384;48.860;9.188;2023-06-01T15:25:26;26.10;57.40
31819;DHT22;18384;48.860;9.188;2023-06-01T15:27:52;26.00;57.10
31819;DHT22;18384;48.860;9.188;2023-06-01T15:30:18;26.00;55.10
31819;DHT22;18384;48.860;9.188;2023-06-01T15:32:44;26.10;56.20
31819;DHT22;18384;48.860;9.188;2023-06-01T15:35:10;26.00;54.90
31819;DHT22;18384;48.860;9.188;2023-06-01T15:37:37;26.00;55.40
31819;DHT22;18384;48.860;9.188;2023-06-01T15:40:12;25.90;54.90
31819;DHT22;18384;48.860;9.188;2023-06-01T15:42:39;25.90;55.60
31819;DHT22;18384;48.860;9.188;2023-06-01T15:45:06;25.90;54.80
31819;DHT22;18384;48.860;9.188;2023-06-01T15:47:32;25.90;54.50
31819;DHT22;18384;48.860;9.188;2023-06-01T15:49:59;25.90;54.80
31819;DHT22;18384;48.860;9.188;2023-06-01T15:52:26;25.90;54.50
31819;DHT22;18384;48.860;9.188;2023-06-01T15:54:52;25.90;53.70
31819;DHT22;18384;48.860;9.188;2023-06-01T15:57:20;25.80;53.80
31819;DHT22;18384;48.860;9.188;2023-06-01T15:59:46;25.80;55.10
31819;DHT22;18384;48.860;9.188;2023-06-01T16:02:13;25.80;54.20
31819;DHT22;18384;48.860;9.188;2023-06-01T16:04:39;25.80;54.70
31819;DHT22;18384;48.860;9.188;2023-06-01T16:07:05;25.80;54.00
31819;DHT22;18384;48.860;9.188;2023-06-01T16:09:33;25.80;54.50
31819;DHT22;18384;48.860;9.188;2023-06-01T16:12:00;25.80;53.80